Time;durP1;ratioP1;P1;durP2;ratioP2;P2;SDS_P1;SDS_P2;PMS_P1;PMS_P2;Temp;Humidity;BMP_temperature;BMP_pressure;BME280_temperature;BME280_humidity;BME280_pressure;Samples;Min_cycle;Max_cycle;Signal;HPM_P1;HPM_P2
2022/06/05 08:07:52;;;;;;;8.55;6.72;;;34.70;99.90;;;;;;6203914;22;2300688;-92
2022/06/05 08:10:36;;;;;;;9.23;6.20;;;34.70;99.90;;;;;;6255790;22;20091;-93
2022/06/05 08:13:04;;;;;;;7.05;5.93;;;34.30;99.90;;;;;;6229003;22;20008;-91
2022/06/05 08:15:31;;;;;;;8.95;5.80;;;34.10;99.90;;;;;;6227513;22;20031;-93
2022/06/05 08:17:57;;;;;;;14.43;6.25;;;34.00;99.90;;;;;;6227762;22;20464;-96
2022/06/05 08:20:24;;;;;;;13.52;6.57;;;34.00;99.90;;;;;;6222149;23;20047;-92
2022/06/05 08:22:52;;;;;;;8.50;6.53;;;33.90;99.90;;;;;;6223021;23;20008;-93
2022/06/05 08:25:19;;;;;;;10.32;6.40;;;33.90;99.90;;;;;;6222368;23;20004;-91
2022/06/05 08:27:48;;;;;;;8.85;7.15;;;34.40;99.90;;;;;;6222327;23;20031;-92
2022/06/05 08:30:15;;;;;;;10.35;6.78;;;34.80;99.90;;;;;;6222078;23;20015;-91
2022/06/05 08:32:42;;;;;;;10.73;6.72;;;34.70;99.90;;;;;;6221950;23;20342;-93
2022/06/05 08:35:09;;;;;;;11.75;6.45;;;34.50;99.90;;;;;;6222000;23;20004;-94
2022/06/05 08:43:33;;;;;;;10.38;7.00;;;35.40;99.90;;;;;;6247464;23;20019;-92
2022/06/05 08:46:24;;;;;;;6.93;6.30;;;35.60;99.90;;;;;;6202636;23;20008;-91
2022/06/05 08:49:06;;;;;;;7.82;6.65;;;35.20;99.90;;;;;;6211397;23;20019;-92
2022/06/05 08:51:50;;;;;;;7.50;6.90;;;34.70;99.90;;;;;;6207933;23;20008;-92
2022/06/05 08:54:37;;;;;;;7.80;6.22;;;35.20;99.90;;;;;;6229998;23;20012;-91
2022/06/05 08:57:23;;;;;;;7.57;6.60;;;35.50;99.90;;;;;;6231156;23;20009;-91
2022/06/05 09:00:02;;;;;;;7.22;6.57;;;35.50;99.90;;;;;;6230470;23;20015;-93
2022/06/05 09:02:42;;;;;;;7.38;6.78;;;35.30;99.90;;;;;;6206144;23;20430;-92
2022/06/05 09:05:26;;;;;;;7.28;6.68;;;35.20;99.90;;;;;;6229986;23;20015;-93
2022/06/05 09:08:04;;;;;;;;;;;35.40;99.90;;;;;;6194303;23;20048;-92
2022/06/05 09:10:40;;;;;;;10.20;7.50;;;35.10;99.90;;;;;;6195946;23;19975;-91
2022/06/05 09:13:43;;;;;;;11.77;7.60;;;35.30;99.90;;;;;;6219630;23;20028;-91
2022/06/05 09:16:28;;;;;;;9.00;7.28;;;35.60;99.90;;;;;;6223428;23;20013;-93
2022/06/05 09:18:57;;;;;;;9.57;7.60;;;35.50;99.90;;;;;;6220514;23;20044;-92
2022/06/05 09:21:43;;;;;;;10.65;7.28;;;34.90;99.90;;;;;;6220769;23;20036;-93
2022/06/05 09:24:27;;;;;;;10.40;7.00;;;34.60;99.90;;;;;;6219613;23;20005;-92
2022/06/05 09:27:32;;;;;;;13.73;7.53;;;34.60;99.90;;;;;;6220521;23;20004;-91
2022/06/05 09:30:25;;;;;;;8.93;6.95;;;34.70;99.90;;;;;;6220374;23;20005;-93
2022/06/05 09:33:05;;;;;;;11.63;8.13;;;34.60;99.90;;;;;;6170950;23;20009;-91
2022/06/05 09:35:37;;;;;;;10.32;7.68;;;34.60;99.90;;;;;;6215924;23;20094;-92
2022/06/05 09:38:13;;;;;;;10.38;6.68;;;34.60;99.90;;;;;;6211672;23;20100;-91
2022/06/05 09:49:02;;;;;;;10.25;6.57;;;34.30;99.90;;;;;;6218607;23;20031;-92
2022/06/05 09:51:29;;;;;;;11.55;7.75;;;34.20;99.90;;;;;;6168991;23;20012;-91
2022/06/05 09:54:18;;;;;;;15.38;8.10;;;34.30;99.90;;;;;;6176964;23;20008;-91
2022/06/05 10:00:15;;;;;;;14.02;7.38;;;34.00;99.90;;;;;;6168464;23;20112;-91
2022/06/05 10:02:48;;;;;;;8.55;7.03;;;33.90;99.90;;;;;;6144189;23;20005;-91
2022/06/05 10:05:26;;;;;;;12.75;7.40;;;34.00;99.90;;;;;;6138368;23;20036;-90
2022/06/05 10:08:17;;;;;;;14.50;7.88;;;34.10;99.90;;;;;;6137837;23;20005;-91
2022/06/05 10:10:47;;;;;;;12.07;7.85;;;34.40;99.90;;;;;;6163923;23;20041;-92
2022/06/05 10:13:17;;;;;;;12.35;8.48;;;34.30;99.10;;;;;;6137479;23;20005;-92
2022/06/05 10:16:10;;;;;;;16.80;8.82;;;34.50;99.20;;;;;;6137850;23;20005;-91
2022/06/05 10:18:58;;;;;;;13.90;8.27;;;34.70;98.90;;;;;;6163457;23;20013;-91
2022/06/05 10:21:35;;;;;;;20.60;8.75;;;34.60;98.70;;;;;;6138282;23;20001;-91
2022/06/05 10:24:27;;;;;;;14.35;8.73;;;34.60;98.20;;;;;;6138670;23;20009;-91
2022/06/05 10:27:16;;;;;;;10.32;8.00;;;34.30;98.40;;;;;;6136730;23;20009;-92
2022/06/05 10:29:55;;;;;;;14.27;8.70;;;34.30;98.20;;;;;;6078898;23;20021;-91
2022/06/05 10:32:50;;;;;;;9.00;7.95;;;34.30;97.20;;;;;;6126672;23;20010;-92
2022/06/05 10:35:30;;;;;;;15.95;9.20;;;34.20;97.40;;;;;;6095212;23;20443;-93
2022/06/05 10:38:35;;;;;;;15.65;8.75;;;34.10;97.50;;;;;;6101627;23;20351;-93
2022/06/05 10:41:24;;;;;;;15.57;9.48;;;34.30;97.50;;;;;;6101467;23;20053;-90
2022/06/05 10:44:15;;;;;;;10.50;8.25;;;34.30;97.30;;;;;;6125402;23;20013;-93
2022/06/05 10:47:08;;;;;;;13.60;9.10;;;34.10;97.30;;;;;;6101099;23;20029;-93
2022/06/05 10:49:35;;;;;;;18.27;9.32;;;34.10;97.20;;;;;;6125722;23;20002;-93
2022/06/05 10:52:17;;;;;;;14.57;9.10;;;34.00;97.20;;;;;;6101235;23;20067;-93
2022/06/05 10:55:16;;;;;;;13.55;8.93;;;34.30;97.00;;;;;;6100958;23;20089;-93
2022/06/05 10:57:59;;;;;;;14.90;8.63;;;34.20;97.10;;;;;;6125373;23;20186;-93
2022/06/05 11:00:49;;;;;;;16.83;9.35;;;34.40;96.40;;;;;;6119653;23;20018;-93
2022/06/05 11:03:27;;;;;;;11.43;9.23;;;34.50;96.90;;;;;;6131398;23;20028;-94
2022/06/05 11:06:35;;;;;;;13.05;9.15;;;34.50;97.00;;;;;;6156128;23;20044;-92
2022/06/05 11:09:19;;;;;;;14.23;9.00;;;34.40;96.50;;;;;;6155635;23;20009;-93
2022/06/05 11:14:56;;;;;;;18.00;10.30;;;34.50;96.50;;;;;;6156096;23;20052;-93
2022/06/05 11:18:00;;;;;;;13.88;8.43;;;34.40;95.90;;;;;;6131163;23;20427;-95
2022/06/05 11:20:28;;;;;;;17.70;9.45;;;34.60;96.20;;;;;;6131373;23;20371;-93
2022/06/05 11:23:03;;;;;;;17.67;9.57;;;34.60;95.80;;;;;;6131169;23;20423;-94
2022/06/05 11:25:51;;;;;;;13.73;9.02;;;34.70;95.80;;;;;;6131457;23;20033;-94
2022/06/05 11:28:37;;;;;;;19.23;8.95;;;34.80;95.60;;;;;;6131169;23;20068;-95
2022/06/05 11:31:24;;;;;;;18.20;9.38;;;35.10;95.50;;;;;;6131624;23;20006;-94
2022/06/05 11:34:16;;;;;;;18.17;9.80;;;34.70;95.90;;;;;;6131035;23;20383;-92
2022/06/05 11:37:09;;;;;;;18.75;9.93;;;34.60;95.90;;;;;;6133057;23;20006;-92
2022/06/05 11:39:57;;;;;;;20.60;9.05;;;34.40;95.80;;;;;;6133067;23;20352;-94
2022/06/05 11:42:40;;;;;;;15.43;9.15;;;34.40;95.80;;;;;;6133226;23;20009;-94
2022/06/05 11:45:32;;;;;;;13.87;9.23;;;34.20;95.50;;;;;;6132974;23;20017;-93
2022/06/05 11:48:25;;;;;;;12.80;9.52;;;34.40;95.70;;;;;;6132825;23;20021;-94
2022/06/05 11:51:30;;;;;;;12.40;9.63;;;34.20;96.20;;;;;;6133001;23;20010;-94
2022/06/05 11:54:16;;;;;;;16.80;9.00;;;34.40;96.00;;;;;;5993789;23;20007;-94
2022/06/05 11:57:18;;;;;;;14.32;8.82;;;34.20;96.00;;;;;;5993487;23;20018;-94
2022/06/05 12:00:05;;;;;;;10.63;8.90;;;34.10;96.10;;;;;;5993181;23;20020;-92
2022/06/05 12:02:51;;;;;;;13.55;9.15;;;34.50;96.20;;;;;;6002833;23;20057;-92
2022/06/05 12:05:50;;;;;;;21.33;9.60;;;34.90;95.60;;;;;;5993399;23;20015;-93
2022/06/05 12:08:40;;;;;;;17.00;9.45;;;35.00;95.40;;;;;;5993642;23;20019;-94
2022/06/05 12:11:14;;;;;;;21.75;9.52;;;35.00;95.40;;;;;;6016852;23;20011;-92
2022/06/05 12:14:12;;;;;;;16.17;9.02;;;34.80;96.00;;;;;;6016875;23;20018;-92
2022/06/05 12:17:14;;;;;;;12.73;8.98;;;34.50;96.00;;;;;;5993054;23;20338;-92
2022/06/05 12:19:52;;;;;;;13.95;8.45;;;34.40;96.10;;;;;;5993964;23;20019;-93
2022/06/05 12:22:30;;;;;;;12.90;8.52;;;34.60;95.90;;;;;;5993142;23;20039;-95
2022/06/05 12:25:27;;;;;;;16.17;8.93;;;34.40;95.80;;;;;;6016466;23;20434;-94
2022/06/05 12:27:57;;;;;;;16.15;9.60;;;34.50;96.30;;;;;;6016602;23;20461;-94
2022/06/05 12:30:59;;;;;;;13.30;9.13;;;34.40;95.90;;;;;;6066822;23;20043;-93
2022/06/05 12:33:37;;;;;;;10.40;8.18;;;34.70;95.90;;;;;;6147434;23;20080;-93
2022/06/05 12:36:11;;;;;;;13.93;9.20;;;34.40;96.10;;;;;;6132697;23;20029;-92
2022/06/05 12:39:00;;;;;;;13.75;9.45;;;34.60;96.30;;;;;;6132542;23;20010;-93
2022/06/05 12:41:37;;;;;;;17.30;8.52;;;34.60;96.10;;;;;;6132668;23;20017;-92
2022/06/05 12:44:26;;;;;;;13.77;8.13;;;34.60;95.90;;;;;;6132672;23;20012;-94
2022/06/05 12:47:30;;;;;;;14.43;9.00;;;34.60;96.00;;;;;;6156090;23;20023;-94
2022/06/05 12:50:38;;;;;;;12.98;8.45;;;34.70;96.10;;;;;;6158341;23;20415;-94
2022/06/05 12:53:22;;;;;;;13.32;8.77;;;35.00;95.60;;;;;;6132591;23;20096;-93
2022/06/05 12:55:59;;;;;;;;;;;34.70;95.70;;;;;;6132901;23;20010;-94
2022/06/05 12:58:33;;;;;;;15.95;8.80;;;34.50;95.70;;;;;;6132481;23;19959;-95
2022/06/05 13:01:06;;;;;;;20.90;8.75;;;34.50;96.00;;;;;;6132463;23;20072;-94
2022/06/05 13:03:45;;;;;;;13.77;8.30;;;34.60;95.90;;;;;;6157248;23;20013;-94
2022/06/05 13:06:47;;;;;;;13.73;9.25;;;34.50;95.70;;;;;;6132798;23;20014;-92
2022/06/05 13:09:17;;;;;;;13.50;8.93;;;34.70;95.60;;;;;;6132355;23;20005;-93
2022/06/05 13:11:49;;;;;;;14.40;8.68;;;34.70;95.30;;;;;;6132328;23;20006;-94
2022/06/05 13:14:45;;;;;;;17.25;8.93;;;34.70;95.40;;;;;;6133536;23;20006;-93
2022/06/05 13:17:42;;;;;;;16.30;9.65;;;34.70;95.50;;;;;;6132737;23;20040;-94
2022/06/05 13:20:42;;;;;;;17.20;9.45;;;34.80;95.10;;;;;;6132000;23;20028;-93
2022/06/05 13:23:31;;;;;;;17.75;9.02;;;34.60;95.50;;;;;;6132520;23;20033;-93
2022/06/05 13:26:38;;;;;;;12.13;8.85;;;34.60;95.60;;;;;;6156691;23;20017;-94
2022/06/05 13:29:11;;;;;;;15.95;8.20;;;34.70;95.60;;;;;;6132230;23;20006;-94
2022/06/05 13:31:59;;;;;;;14.77;8.77;;;34.80;95.70;;;;;;6132383;23;20045;-93
2022/06/05 13:34:31;;;;;;;13.13;8.43;;;34.60;95.30;;;;;;6132923;23;20097;-93
2022/06/05 13:37:26;;;;;;;18.67;9.23;;;34.20;96.00;;;;;;6133127;23;20017;-93
2022/06/05 13:40:15;;;;;;;16.95;9.18;;;34.00;95.90;;;;;;6156631;23;20051;-93
2022/06/05 13:42:49;;;;;;;20.40;9.38;;;34.00;95.90;;;;;;6131958;23;20002;-93
2022/06/05 13:45:36;;;;;;;10.30;8.88;;;34.30;95.60;;;;;;6132676;23;20013;-96
2022/06/05 13:48:15;;;;;;;15.57;10.10;;;34.40;95.70;;;;;;6156075;23;20017;-95
2022/06/05 13:51:26;;;;;;;10.05;9.02;;;34.40;96.00;;;;;;6132007;23;20012;-93
2022/06/05 13:54:16;;;;;;;17.23;10.75;;;34.30;96.00;;;;;;6137831;23;20013;-93
2022/06/05 13:57:04;;;;;;;20.80;11.23;;;34.40;96.30;;;;;;6132189;23;20036;-94
2022/06/05 13:59:44;;;;;;;18.80;10.57;;;34.40;96.80;;;;;;6131198;23;20021;-94
2022/06/05 14:02:34;;;;;;;20.40;12.88;;;34.30;96.90;;;;;;6131804;23;20013;-94
2022/06/05 14:05:17;;;;;;;18.60;11.07;;;34.00;96.90;;;;;;6132052;23;20016;-93
2022/06/05 14:07:51;;;;;;;19.80;13.82;;;34.00;96.70;;;;;;6157386;23;20434;-93
2022/06/05 14:10:30;;;;;;;20.77;12.63;;;34.10;97.00;;;;;;6131848;23;20017;-93
2022/06/05 14:13:13;;;;;;;16.85;11.30;;;34.20;97.40;;;;;;6131667;23;20288;-94
2022/06/05 14:15:46;;;;;;;22.77;10.47;;;34.30;97.50;;;;;;6132166;23;20013;-93
2022/06/05 14:18:46;;;;;;;17.92;10.18;;;34.30;97.30;;;;;;6131692;23;20051;-94
2022/06/05 14:21:19;;;;;;;17.73;9.23;;;34.30;97.50;;;;;;6131466;23;20021;-94
2022/06/05 14:23:48;;;;;;;17.15;8.88;;;34.00;97.60;;;;;;6131880;23;20084;-95
2022/06/05 14:26:19;;;;;;;22.60;10.40;;;33.60;97.90;;;;;;6131133;23;20010;-93
2022/06/05 14:28:47;;;;;;;17.95;9.85;;;33.50;97.50;;;;;;6131484;23;20084;-94
2022/06/05 14:31:20;;;;;;;13.30;9.10;;;33.60;97.80;;;;;;6131640;23;20033;-93
2022/06/05 14:33:58;;;;;;;14.10;8.57;;;33.80;97.80;;;;;;6132335;23;20014;-94
2022/06/05 14:36:47;;;;;;;14.32;10.05;;;34.10;97.50;;;;;;6131533;23;20013;-94
2022/06/05 14:39:25;;;;;;;15.60;9.23;;;33.90;97.30;;;;;;6131409;23;20390;-93
2022/06/05 14:42:02;;;;;;;16.73;9.85;;;33.70;97.70;;;;;;6131335;23;20009;-94
2022/06/05 14:44:40;;;;;;;15.07;9.23;;;33.60;97.60;;;;;;6131317;23;20006;-93
2022/06/05 14:47:41;;;;;;;21.17;9.20;;;33.30;97.80;;;;;;6131759;23;20022;-93
2022/06/05 14:50:17;;;;;;;14.77;9.00;;;33.50;97.60;;;;;;6149937;23;20010;-94
2022/06/05 14:53:08;;;;;;;12.27;8.27;;;33.60;97.40;;;;;;6131363;23;20017;-95
2022/06/05 14:59:29;;;;;;;27.95;10.73;;;33.30;97.30;;;;;;5978354;23;20023;-94
2022/06/05 15:02:21;;;;;;;18.80;10.70;;;33.10;97.20;;;;;;5981988;23;20011;-93
2022/06/05 15:05:14;;;;;;;22.13;10.90;;;33.20;97.30;;;;;;6015126;23;20022;-94
2022/06/05 15:07:59;;;;;;;18.75;10.18;;;33.30;97.50;;;;;;6015223;23;20094;-95
2022/06/05 15:10:35;;;;;;;23.27;10.60;;;33.50;97.30;;;;;;6015262;23;20011;-95
2022/06/05 15:13:07;;;;;;;18.92;9.70;;;33.60;97.10;;;;;;6015065;23;20014;-94
2022/06/05 15:15:45;;;;;;;17.83;8.95;;;33.50;97.20;;;;;;5992233;23;20011;-95
2022/06/05 15:18:12;;;;;;;22.70;10.00;;;33.10;97.50;;;;;;6015111;23;20039;-94
2022/06/05 15:20:57;;;;;;;17.52;9.50;;;32.80;97.80;;;;;;6015403;23;20015;-93
2022/06/05 15:23:53;;;;;;;18.40;8.68;;;33.00;97.80;;;;;;6015468;23;20071;-93
2022/06/05 15:26:45;;;;;;;17.50;8.85;;;33.10;98.10;;;;;;5991747;23;20019;-93
2022/06/05 15:29:40;;;;;;;11.88;7.93;;;33.10;97.90;;;;;;5991805;23;20015;-93
2022/06/05 15:32:22;;;;;;;15.30;8.55;;;33.00;97.50;;;;;;6015088;23;20007;-93
2022/06/05 15:35:07;;;;;;;16.02;8.60;;;32.80;97.60;;;;;;6024553;23;20009;-93
2022/06/05 15:38:00;;;;;;;12.63;7.90;;;32.80;97.80;;;;;;6156715;23;20028;-93
2022/06/05 15:41:04;;;;;;;15.55;7.88;;;32.70;98.00;;;;;;6130698;23;20108;-94
2022/06/05 15:43:52;;;;;;;15.70;9.75;;;32.60;98.30;;;;;;6131571;23;20328;-94
2022/06/05 15:46:46;;;;;;;21.73;8.40;;;32.50;98.10;;;;;;6131408;23;20035;-93
2022/06/05 15:49:37;;;;;;;14.63;7.65;;;32.60;98.30;;;;;;6131521;23;20021;-94
2022/06/05 15:52:16;;;;;;;14.40;7.75;;;32.80;98.50;;;;;;6156030;23;20012;-94
2022/06/05 15:54:47;;;;;;;17.63;7.55;;;32.70;98.60;;;;;;6155637;23;20009;-95
2022/06/05 16:00:21;;;;;;;12.23;7.25;;;32.60;99.00;;;;;;6156832;23;20096;-94
2022/06/05 16:02:53;;;;;;;9.65;7.38;;;32.50;99.10;;;;;;6131333;23;20014;-93
2022/06/05 16:05:32;;;;;;;18.30;7.68;;;32.60;99.20;;;;;;6131455;23;20368;-93
2022/06/05 16:08:07;;;;;;;18.77;7.43;;;32.60;99.10;;;;;;6146302;23;20010;-92
2022/06/05 16:11:09;;;;;;;14.15;7.10;;;32.50;99.30;;;;;;6146733;23;20044;-92
2022/06/05 16:13:50;;;;;;;10.60;6.53;;;32.60;99.40;;;;;;6144168;23;20020;-93
2022/06/05 16:16:48;;;;;;;16.35;7.18;;;32.70;99.30;;;;;;6145361;23;20009;-93
2022/06/05 16:19:44;;;;;;;14.45;7.32;;;32.60;99.10;;;;;;6146606;23;20096;-93
2022/06/05 16:22:34;;;;;;;16.63;7.03;;;32.40;99.30;;;;;;6147355;23;20006;-92
2022/06/05 16:25:26;;;;;;;14.32;7.32;;;32.20;99.30;;;;;;6148687;23;20029;-92
2022/06/05 16:27:58;;;;;;;14.15;7.15;;;32.10;99.50;;;;;;6149115;23;20005;-94
2022/06/05 16:31:13;;;;;;;13.52;7.00;;;32.10;99.30;;;;;;6123375;23;20009;-93
2022/06/05 16:33:49;;;;;;;19.65;7.05;;;32.20;99.40;;;;;;6163789;23;20006;-93
2022/06/05 16:39:27;;;;;;;16.77;7.07;;;32.10;99.10;;;;;;6173274;23;20018;-93
2022/06/05 16:42:14;;;;;;;19.27;6.93;;;32.00;99.50;;;;;;6148400;23;20009;-92
2022/06/05 16:45:07;;;;;;;14.57;6.50;;;31.90;99.40;;;;;;6147269;23;20015;-93
2022/06/05 16:47:38;;;;;;;13.88;6.80;;;31.90;99.80;;;;;;6148820;23;20048;-94
2022/06/05 16:50:21;;;;;;;14.18;6.68;;;31.80;99.90;;;;;;6132876;23;20064;-93
2022/06/05 16:52:58;;;;;;;14.63;7.50;;;31.80;99.90;;;;;;6133312;23;20324;-92
2022/06/05 16:55:50;;;;;;;9.68;6.68;;;31.80;99.70;;;;;;6157669;23;20446;-92
2022/06/05 16:58:26;;;;;;;12.98;6.85;;;31.60;99.70;;;;;;6135419;23;20005;-92
2022/06/05 17:01:26;;;;;;;14.63;7.03;;;31.50;99.90;;;;;;6134825;23;20021;-94
2022/06/05 17:04:12;;;;;;;19.10;6.78;;;31.40;99.90;;;;;;6133712;23;20009;-93
2022/06/05 17:06:49;;;;;;;8.27;5.88;;;31.30;99.90;;;;;;6157361;23;20066;-93
2022/06/05 17:09:17;;;;;;;14.48;6.47;;;31.20;99.90;;;;;;6133062;23;20506;-93
2022/06/05 17:11:48;;;;;;;13.45;6.03;;;31.30;99.90;;;;;;6133437;23;20005;-94
2022/06/05 17:14:36;;;;;;;18.48;6.32;;;31.20;99.90;;;;;;6132509;23;20037;-93
2022/06/05 17:17:05;;;;;;;11.38;5.97;;;31.20;99.90;;;;;;6132118;23;20013;-94
2022/06/05 17:19:37;;;;;;;15.38;5.78;;;31.20;99.90;;;;;;6156693;23;20053;-94
2022/06/05 17:22:39;;;;;;;19.50;6.45;;;31.10;99.90;;;;;;6133080;23;20364;-94
2022/06/05 17:25:17;;;;;;;14.38;5.95;;;31.00;99.90;;;;;;5992739;23;20015;-93
2022/06/05 17:28:18;;;;;;;13.40;6.20;;;30.80;99.90;;;;;;5993929;23;20042;-93
2022/06/05 17:31:01;;;;;;;15.00;5.65;;;30.80;99.90;;;;;;5992878;23;20015;-92
2022/06/05 17:33:51;;;;;;;23.17;6.53;;;30.80;99.90;;;;;;5992375;23;20011;-93
2022/06/05 17:36:36;;;;;;;13.75;6.05;;;30.70;99.90;;;;;;6015694;23;20019;-93
2022/06/05 17:39:36;;;;;;;16.08;5.68;;;30.70;99.90;;;;;;5992355;23;20019;-92
2022/06/05 17:42:20;;;;;;;15.52;6.10;;;30.70;99.90;;;;;;6016049;23;20011;-93
2022/06/05 17:45:22;;;;;;;14.52;6.15;;;30.60;99.90;;;;;;5992382;23;20136;-93
2022/06/05 17:48:09;;;;;;;23.45;6.47;;;30.60;99.90;;;;;;6016665;23;20019;-92
2022/06/05 17:51:09;;;;;;;13.30;5.20;;;30.50;99.90;;;;;;5992608;23;20015;-92
2022/06/05 17:53:48;;;;;;;19.48;7.25;;;30.50;99.90;;;;;;5992327;23;20011;-92
2022/06/05 17:56:23;;;;;;;9.60;6.13;;;30.40;99.90;;;;;;6015799;23;20015;-92
2022/06/05 17:58:50;;;;;;;11.18;5.95;;;30.20;99.90;;;;;;6015581;23;20007;-93
2022/06/05 18:01:37;;;;;;;12.25;5.97;;;30.20;99.90;;;;;;6122986;23;20081;-91
2022/06/05 18:04:17;;;;;;;12.85;6.28;;;30.10;99.10;;;;;;6131725;23;20009;-93
2022/06/05 18:06:44;;;;;;;14.18;6.97;;;30.10;99.40;;;;;;6132223;23;20064;-93
2022/06/05 18:09:26;;;;;;;14.85;7.00;;;30.00;99.70;;;;;;6131791;23;20427;-92
2022/06/05 18:12:17;;;;;;;19.63;8.65;;;30.00;99.90;;;;;;6131636;23;20063;-91
2022/06/05 18:14:51;;;;;;;15.60;8.00;;;29.90;99.90;;;;;;6131639;23;20032;-92
2022/06/05 18:17:37;;;;;;;15.55;7.97;;;29.80;99.90;;;;;;6132361;23;20005;-93
2022/06/05 18:20:17;;;;;;;22.65;7.32;;;29.60;99.90;;;;;;6102564;23;20022;-93
2022/06/05 18:23:12;;;;;;;17.50;6.57;;;29.40;99.90;;;;;;6078414;23;20005;-94
2022/06/05 18:25:50;;;;;;;16.50;6.80;;;29.30;99.90;;;;;;6068237;23;20030;-93
2022/06/05 18:28:37;;;;;;;15.73;6.38;;;29.10;99.90;;;;;;6044168;23;20014;-92
2022/06/05 18:31:26;;;;;;;23.52;6.65;;;29.00;99.90;;;;;;6020487;23;20014;-92
2022/06/05 18:34:25;;;;;;;17.77;6.32;;;28.80;99.90;;;;;;6043885;23;20015;-92
2022/06/05 18:39:49;;;;;;;18.33;6.05;;;28.60;99.90;;;;;;6045122;23;20022;-93
2022/06/05 18:42:20;;;;;;;14.77;5.57;;;28.50;99.90;;;;;;6044410;23;20011;-90
2022/06/05 18:44:48;;;;;;;19.10;5.45;;;28.40;99.90;;;;;;6020295;23;20049;-91
2022/06/05 18:47:31;;;;;;;14.15;5.22;;;28.30;99.90;;;;;;6072690;23;20022;-93
2022/06/05 18:49:59;;;;;;;15.05;6.00;;;28.30;99.90;;;;;;6053863;23;20010;-91
2022/06/05 18:52:29;;;;;;;12.75;5.90;;;28.20;99.90;;;;;;6082674;23;20436;-92
2022/06/05 18:55:01;;;;;;;21.13;5.68;;;28.10;99.90;;;;;;6081598;23;20053;-93
2022/06/05 18:57:31;;;;;;;12.93;5.78;;;28.00;99.90;;;;;;6082805;23;20020;-93
2022/06/05 19:00:10;;;;;;;13.68;5.90;;;27.90;99.90;;;;;;6110754;23;20041;-94
2022/06/05 19:02:53;;;;;;;15.35;5.88;;;27.90;99.90;;;;;;6138951;23;20002;-93
2022/06/05 19:05:42;;;;;;;18.35;6.13;;;27.90;99.90;;;;;;6143824;23;20013;-93
2022/06/05 19:08:30;;;;;;;15.15;5.25;;;27.90;99.90;;;;;;6140123;23;20063;-93
2022/06/05 19:13:56;;;;;;;14.95;6.10;;;27.80;99.90;;;;;;6217295;23;20035;-93
2022/06/05 19:16:49;;;;;;;11.30;5.43;;;27.80;99.90;;;;;;6147230;23;20028;-94
2022/06/05 19:19:39;;;;;;;14.05;5.57;;;27.80;99.90;;;;;;6168255;23;20019;-93
2022/06/05 19:22:50;;;;;;;18.75;5.03;;;27.80;99.90;;;;;;6170192;23;20008;-93
2022/06/05 19:25:42;;;;;;;13.23;4.80;;;27.70;99.90;;;;;;6205418;23;20031;-93
2022/06/05 19:28:22;;;;;;;18.98;5.10;;;27.70;99.90;;;;;;6173620;23;20438;-93
2022/06/05 19:30:58;;;;;;;19.33;5.78;;;27.60;99.90;;;;;;6175758;23;20009;-93
2022/06/05 19:33:36;;;;;;;21.48;7.22;;;27.60;99.90;;;;;;6271455;22;20094;-93
2022/06/05 19:39:25;;;;;;;54.90;18.50;;;27.60;99.90;;;;;;6254396;23;20014;-92
2022/06/05 19:41:52;;;;;;;52.22;16.73;;;27.60;99.90;;;;;;6231139;23;20012;-93
2022/06/05 19:44:27;;;;;;;42.28;14.70;;;27.60;99.90;;;;;;6236142;23;20007;-93
2022/06/05 19:47:26;;;;;;;30.00;11.25;;;27.60;99.90;;;;;;6226248;23;20497;-93
2022/06/05 19:49:57;;;;;;;32.33;10.48;;;27.60;99.90;;;;;;6223708;23;20014;-93
2022/06/05 19:52:29;;;;;;;29.40;10.27;;;27.50;99.90;;;;;;6222842;23;20422;-92
2022/06/05 19:54:59;;;;;;;27.58;9.43;;;27.50;99.90;;;;;;6221070;23;20008;-91
2022/06/05 19:57:34;;;;;;;31.67;10.60;;;27.40;99.90;;;;;;6222480;23;20000;-91
2022/06/05 20:00:14;;;;;;;30.40;9.00;;;27.30;99.90;;;;;;6223329;23;20024;-91
2022/06/05 20:02:54;;;;;;;27.13;8.98;;;27.10;99.90;;;;;;6222360;23;20043;-91
2022/06/05 20:05:35;;;;;;;41.63;13.77;;;26.90;99.90;;;;;;6222724;23;20012;-91
2022/06/05 20:08:09;;;;;;;30.00;11.23;;;26.90;99.90;;;;;;6222789;23;20414;-90
2022/06/05 20:11:08;;;;;;;26.75;9.43;;;27.10;99.90;;;;;;6226372;23;20015;-91
2022/06/05 20:13:47;;;;;;;25.27;8.38;;;27.20;99.90;;;;;;6222923;23;20036;-91
2022/06/05 20:19:22;;;;;;;24.33;8.05;;;27.30;99.90;;;;;;6247617;23;20016;-93
2022/06/05 20:22:02;;;;;;;15.48;6.93;;;27.30;99.90;;;;;;6222070;23;20018;-90
2022/06/05 20:24:31;;;;;;;23.10;8.35;;;27.10;99.90;;;;;;6222244;23;20020;-91
2022/06/05 20:27:06;;;;;;;18.45;7.50;;;27.00;99.90;;;;;;6222162;23;20039;-89
2022/06/05 20:29:38;;;;;;;21.10;7.28;;;26.80;99.90;;;;;;6222163;23;20065;-90
2022/06/05 20:32:05;;;;;;;17.95;6.43;;;26.70;99.90;;;;;;6221563;23;20043;-93
2022/06/05 20:34:42;;;;;;;19.83;6.53;;;26.50;99.90;;;;;;6221824;23;20008;-90
2022/06/05 20:37:21;;;;;;;21.75;7.07;;;26.30;99.90;;;;;;6222083;23;20015;-90
2022/06/05 20:39:54;;;;;;;19.33;7.57;;;26.20;99.90;;;;;;6221849;23;20040;-90
2022/06/05 20:42:42;;;;;;;17.80;6.55;;;26.10;99.90;;;;;;6222086;23;20063;-90
2022/06/05 20:45:15;;;;;;;16.13;5.68;;;26.00;99.90;;;;;;6221894;23;20012;-89
2022/06/05 20:47:48;;;;;;;20.88;5.82;;;26.00;99.90;;;;;;6221942;23;20000;-89
2022/06/05 20:50:22;;;;;;;22.67;5.35;;;26.00;99.90;;;;;;6221941;23;20126;-89
2022/06/05 20:53:10;;;;;;;17.13;6.30;;;26.10;99.90;;;;;;6221837;23;20008;-89
2022/06/05 20:55:45;;;;;;;18.50;5.80;;;26.00;99.90;;;;;;6221831;23;20186;-88
2022/06/05 20:58:29;;;;;;;16.10;6.32;;;26.00;99.90;;;;;;6221879;23;20402;-91
2022/06/05 21:01:03;;;;;;;19.50;5.95;;;26.00;99.90;;;;;;6221845;23;20020;-90
2022/06/05 21:09:24;;;;;;;28.77;6.40;;;26.10;99.90;;;;;;6246605;23;20008;-88
2022/06/05 21:17:29;;;;;;;18.85;6.88;;;26.30;99.90;;;;;;6247173;23;20036;-90
2022/06/05 21:20:06;;;;;;;25.80;6.88;;;26.20;99.90;;;;;;6221540;23;20074;-89
2022/06/05 21:22:34;;;;;;;18.85;5.93;;;26.20;99.90;;;;;;6221763;23;20008;-90
2022/06/05 21:25:06;;;;;;;25.80;7.05;;;26.20;99.90;;;;;;6221699;23;20019;-91
2022/06/05 21:27:42;;;;;;;18.83;6.80;;;26.20;99.90;;;;;;6221574;23;20009;-89
2022/06/05 21:30:27;;;;;;;26.85;8.07;;;26.20;99.90;;;;;;6221511;23;20035;-88
2022/06/05 21:33:01;;;;;;;18.27;5.90;;;26.20;99.90;;;;;;6221288;23;20095;-89
2022/06/05 21:35:47;;;;;;;17.50;6.68;;;26.10;99.90;;;;;;6221739;23;20011;-89
2022/06/05 21:38:26;;;;;;;27.23;7.35;;;26.00;99.90;;;;;;6221585;23;20065;-89
2022/06/05 21:41:04;;;;;;;24.40;7.68;;;25.80;99.90;;;;;;6221378;23;20051;-89
2022/06/05 21:43:49;;;;;;;23.65;7.13;;;25.70;99.90;;;;;;6221622;23;20012;-90
2022/06/05 21:46:25;;;;;;;20.67;6.95;;;25.60;99.90;;;;;;6221408;23;20015;-90
2022/06/05 21:48:52;;;;;;;23.00;6.65;;;25.50;99.90;;;;;;6221292;23;20014;-90
2022/06/05 21:51:25;;;;;;;21.40;6.95;;;25.40;99.90;;;;;;6221392;23;20016;-91
2022/06/05 21:53:54;;;;;;;21.27;6.60;;;25.30;99.90;;;;;;6221500;23;20012;-89
2022/06/05 21:56:38;;;;;;;24.48;6.93;;;25.30;99.90;;;;;;6221513;23;20016;-89
2022/06/05 21:59:05;;;;;;;16.63;6.88;;;25.30;99.90;;;;;;6221271;23;20024;-90
2022/06/05 22:01:32;;;;;;;22.50;8.38;;;25.20;99.90;;;;;;6221138;23;20015;-90
2022/06/05 22:03:58;;;;;;;20.52;7.32;;;25.20;99.90;;;;;;6221364;23;20008;-91
2022/06/05 22:06:31;;;;;;;34.35;7.68;;;25.20;99.90;;;;;;6221678;23;20004;-89
2022/06/05 22:09:05;;;;;;;20.98;7.25;;;25.20;99.90;;;;;;6221251;23;20004;-91
2022/06/05 22:11:34;;;;;;;21.30;7.07;;;25.20;99.90;;;;;;6221334;23;20012;-91
2022/06/05 22:14:07;;;;;;;20.95;7.05;;;25.20;99.90;;;;;;6221218;23;20008;-90
2022/06/05 22:16:37;;;;;;;29.67;8.17;;;25.20;99.90;;;;;;6221268;23;20070;-89
2022/06/05 22:19:05;;;;;;;18.98;7.40;;;25.10;99.90;;;;;;6220778;23;20255;-91
2022/06/05 22:21:34;;;;;;;21.50;7.13;;;25.10;99.90;;;;;;6220693;23;20039;-89
2022/06/05 22:24:01;;;;;;;18.63;7.15;;;25.10;99.90;;;;;;6221118;23;20083;-89
2022/06/05 22:26:29;;;;;;;19.13;7.22;;;25.10;99.90;;;;;;6221111;23;20110;-90
2022/06/05 22:28:56;;;;;;;21.95;7.00;;;25.10;99.90;;;;;;6220975;23;20000;-89
2022/06/05 22:31:24;;;;;;;27.55;7.53;;;25.10;99.90;;;;;;6220641;23;20015;-89
2022/06/05 22:33:51;;;;;;;14.75;6.80;;;25.10;99.90;;;;;;6220825;23;20090;-89
2022/06/05 22:36:18;;;;;;;19.80;7.70;;;25.10;99.90;;;;;;6221059;23;20008;-91
2022/06/05 22:38:46;;;;;;;23.60;6.68;;;25.10;99.90;;;;;;6220928;23;20453;-91
2022/06/05 22:41:17;;;;;;;35.25;12.93;;;25.10;99.90;;;;;;6220623;23;20016;-92
2022/06/05 22:43:44;;;;;;;20.15;7.70;;;25.20;99.90;;;;;;6221150;23;20004;-88
2022/06/05 22:46:11;;;;;;;21.80;7.15;;;25.20;99.90;;;;;;6220763;23;20012;-90
2022/06/05 22:48:39;;;;;;;20.25;6.93;;;25.10;99.90;;;;;;6221170;23;20004;-89
2022/06/05 22:51:06;;;;;;;19.70;7.30;;;25.10;99.90;;;;;;6220795;23;20024;-90